Time;durP1;ratioP1;P1;durP2;ratioP2;P2;SDS_P1;SDS_P2;PMS_P1;PMS_P2;Temp;Humidity;BMP_temperature;BMP_pressure;BME280_temperature;BME280_humidity;BME280_pressure;Samples;Min_cycle;Max_cycle;Signal;HPM_P1;HPM_P2
2023/10/10 00:00:49;;;;;;;0.20;0.20;;;;;;;15.31;50.60;101525.72;4993844;28;20026;-89
2023/10/10 00:03:17;;;;;;;0.20;0.20;;;;;;;15.40;51.09;101530.44;5029713;28;20034;-91
2023/10/10 00:05:43;;;;;;;0.20;0.20;;;;;;;15.48;50.40;101523.03;5013063;28;20030;-90
2023/10/10 00:08:10;;;;;;;0.10;0.10;;;;;;;15.55;50.53;101529.59;4996904;28;20110;-88
2023/10/10 00:10:43;;;;;;;0.10;0.10;;;;;;;15.55;50.94;101513.94;4980924;28;20061;-88
2023/10/10 00:13:11;;;;;;;0.20;0.20;;;;;;;15.44;51.02;101479.81;5013437;28;20076;-89
2023/10/10 00:15:39;;;;;;;0.10;0.10;;;;;;;15.57;51.00;101488.63;4980929;28;20033;-89
2023/10/10 00:18:07;;;;;;;0.10;0.10;;;;;;;15.61;50.90;101503.19;4996767;28;20183;-90
2023/10/10 00:20:41;;;;;;;0.10;0.10;;;;;;;15.63;51.44;101505.69;4996844;28;20409;-90
2023/10/10 00:23:10;;;;;;;0.20;0.20;;;;;;;15.67;50.90;101502.84;4997584;28;20068;-91
2023/10/10 00:25:38;;;;;;;0.13;0.13;;;;;;;15.71;51.22;101509.56;5012363;28;20045;-90
2023/10/10 00:28:08;;;;;;;0.10;0.10;;;;;;;15.73;51.38;101506.88;5012839;28;20038;-88
2023/10/10 00:30:34;;;;;;;0.10;0.10;;;;;;;15.71;51.67;101493.91;4981123;28;20088;-90
2023/10/10 00:33:04;;;;;;;0.10;0.10;;;;;;;15.73;51.72;101499.91;4996676;28;20022;-89
2023/10/10 00:35:31;;;;;;;0.20;0.20;;;;;;;15.85;51.42;101494.91;5012308;28;20403;-90
2023/10/10 00:37:57;;;;;;;0.20;0.20;;;;;;;15.91;51.60;101497.16;5029216;28;20053;-89
2023/10/10 00:40:29;;;;;;;0.10;0.10;;;;;;;15.87;51.92;101474.78;5028671;28;20037;-90
2023/10/10 00:42:58;;;;;;;0.10;0.10;;;;;;;15.96;52.18;101487.31;5028587;28;20029;-91
2023/10/10 00:45:24;;;;;;;0.10;0.10;;;;;;;15.93;52.52;101487.50;4997039;28;20036;-90
2023/10/10 00:47:52;;;;;;;0.10;0.10;;;;;;;15.88;52.71;101479.06;4996298;28;20109;-88
2023/10/10 00:50:19;;;;;;;0.20;0.20;;;;;;;15.83;53.02;101470.66;4997346;28;20054;-91
2023/10/10 00:52:48;;;;;;;0.10;0.10;;;;;;;15.96;53.32;101462.06;5025679;28;20042;-89
2023/10/10 00:55:13;;;;;;;0.20;0.20;;;;;;;16.19;52.91;101447.63;4960940;28;20033;-89
2023/10/10 00:57:40;;;;;;;0.20;0.20;;;;;;;16.28;52.53;101425.38;4993108;28;20026;-92
2023/10/10 01:00:10;;;;;;;0.20;0.20;;;;;;;16.57;52.11;101431.44;4993055;28;20030;-89
2023/10/10 01:02:37;;;;;;;0.10;0.10;;;;;;;16.81;52.00;101439.56;4992976;28;20113;-90
2023/10/10 01:05:12;;;;;;;0.10;0.10;;;;;;;16.97;51.77;101440.28;4977102;28;20026;-91
2023/10/10 01:07:39;;;;;;;0.10;0.10;;;;;;;17.09;51.20;101438.69;4977633;28;20792;-90
2023/10/10 01:10:11;;;;;;;0.10;0.10;;;;;;;17.26;51.19;101427.16;4993748;28;20570;-90
2023/10/10 01:12:39;;;;;;;0.10;0.10;;;;;;;17.34;50.75;101427.50;5007975;28;20022;-88
2023/10/10 01:15:14;;;;;;;0.10;0.10;;;;;;;17.41;50.51;101419.16;5008627;28;20499;-89
2023/10/10 01:17:40;;;;;;;0.10;0.10;;;;;;;17.59;50.31;101442.44;4976187;28;20054;-89
2023/10/10 01:20:33;;;;;;;0.10;0.10;;;;;;;17.62;50.58;101442.25;5008784;28;20042;-89
2023/10/10 01:22:59;;;;;;;0.20;0.20;;;;;;;17.59;50.30;101431.97;5005254;28;20023;-89
2023/10/10 01:28:02;;;;;;;0.20;0.20;;;;;;;17.74;50.09;101438.84;4993587;28;20051;-89
2023/10/10 01:33:14;;;;;;;0.10;0.10;;;;;;;17.73;49.85;101445.03;4978582;28;20037;-90
2023/10/10 01:35:42;;;;;;;0.20;0.20;;;;;;;17.81;49.70;101455.84;4993351;28;20030;-89
2023/10/10 01:38:21;;;;;;;0.10;0.10;;;;;;;17.70;49.75;101432.16;4975991;28;20034;-90
2023/10/10 01:40:48;;;;;;;0.20;0.20;;;;;;;17.86;49.49;101450.28;4992499;28;20184;-90
2023/10/10 01:43:17;;;;;;;0.10;0.10;;;;;;;17.74;49.61;101431.84;4976119;28;20029;-90
2023/10/10 01:45:43;;;;;;;0.10;0.10;;;;;;;17.86;49.49;101451.13;4976507;28;20087;-90
2023/10/10 01:48:11;;;;;;;0.20;0.20;;;;;;;17.91;49.58;101449.06;4975567;28;20031;-89
2023/10/10 01:50:36;;;;;;;0.10;0.10;;;;;;;17.94;49.30;101446.22;4976083;28;20036;-90
2023/10/10 01:53:10;;;;;;;0.10;0.10;;;;;;;17.97;49.41;101453.84;5011001;28;20022;-89
2023/10/10 01:55:36;;;;;;;0.10;0.10;;;;;;;17.93;49.78;101462.88;5012845;28;20042;-90
2023/10/10 01:58:02;;;;;;;0.20;0.20;;;;;;;17.73;50.02;101445.03;5027507;28;20365;-90
2023/10/10 02:00:34;;;;;;;0.10;0.10;;;;;;;17.68;50.48;101455.75;5012477;28;20025;-90
2023/10/10 02:03:01;;;;;;;0.20;0.20;;;;;;;17.59;50.78;101465.97;5027045;28;20096;-89
2023/10/10 02:05:41;;;;;;;0.10;0.10;;;;;;;17.66;50.60;101469.88;4994903;28;20449;-90
2023/10/10 02:08:11;;;;;;;0.20;0.20;;;;;;;17.59;50.96;101466.81;4996900;28;20057;-90
2023/10/10 02:10:43;;;;;;;0.10;0.10;;;;;;;17.50;50.86;101467.41;5027241;28;20026;-92
2023/10/10 02:13:11;;;;;;;0.10;0.10;;;;;;;17.35;51.31;101450.94;5011459;28;20022;-90
2023/10/10 02:15:39;;;;;;;0.10;0.10;;;;;;;17.46;51.25;101461.53;4994711;28;20632;-91
2023/10/10 02:18:17;;;;;;;0.20;0.20;;;;;;;17.45;51.95;101475.56;4994959;28;20037;-90
2023/10/10 02:25:55;;;;;;;0.20;0.20;;;;;;;17.51;51.91;101461.28;5010678;28;20088;-90
2023/10/10 02:28:22;;;;;;;0.10;0.10;;;;;;;17.56;51.84;101474.03;5010806;28;20040;-89
2023/10/10 02:30:52;;;;;;;0.10;0.10;;;;;;;17.67;51.69;101479.41;4994788;28;20029;-89
2023/10/10 02:35:56;;;;;;;0.20;0.20;;;;;;;17.73;51.41;101479.06;5026075;28;20034;-89
2023/10/10 02:38:31;;;;;;;;;;;;;;;17.83;50.61;101487.97;5026731;28;20041;-90
2023/10/10 02:46:34;;;;;;;0.20;0.20;;;;;;;17.56;52.66;101484.50;5010550;28;20030;-90
2023/10/10 02:49:09;;;;;;;0.20;0.20;;;;;;;17.47;53.07;101478.91;5025395;28;20112;-88
2023/10/10 02:51:43;;;;;;;0.20;0.20;;;;;;;17.47;53.68;101471.06;4999333;28;20423;-89
2023/10/10 02:56:57;;;;;;;0.20;0.20;;;;;;;17.49;53.75;101466.56;5024608;28;20033;-90
2023/10/10 02:59:37;;;;;;;0.20;0.20;;;;;;;17.53;53.62;101469.84;5010812;28;20064;-90
2023/10/10 03:02:10;;;;;;;0.10;0.10;;;;;;;17.64;53.81;101482.22;4996133;28;20117;-90
2023/10/10 03:05:14;;;;;;;;;;;;;;;17.75;52.99;101500.72;5011762;28;20116;-92
2023/10/10 03:07:30;;;;;;;0.20;0.20;;;;;;;17.86;53.22;101511.31;5022294;28;20007;-92
2023/10/10 03:12:41;;;;;;;0.20;0.20;;;;;;;17.86;54.13;101527.03;5010845;28;20588;-90
2023/10/10 03:15:15;;;;;;;0.10;0.10;;;;;;;17.83;54.43;101523.78;5010639;28;20029;-91
2023/10/10 03:18:15;;;;;;;0.20;0.20;;;;;;;17.85;54.26;101517.50;5010761;28;20040;-90
2023/10/10 03:20:49;;;;;;;0.10;0.10;;;;;;;17.81;55.03;101525.66;5010763;28;20041;-91
2023/10/10 03:31:04;;;;;;;0.20;0.20;;;;;;;17.86;55.96;101545.34;5010738;28;20047;-90
2023/10/10 03:33:43;;;;;;;0.20;0.20;;;;;;;17.85;56.62;101542.84;4995325;28;20407;-91
2023/10/10 05:25:10;;;;;;;0.20;0.20;;;;;;;17.57;60.96;101591.66;5012344;28;20430;-90
2023/10/10 05:27:41;;;;;;;0.10;0.10;;;;;;;17.65;60.66;101588.56;5012187;28;20034;-87
2023/10/10 05:30:23;;;;;;;0.20;0.20;;;;;;;17.68;60.72;101585.75;5010786;28;20034;-89
2023/10/10 05:33:01;;;;;;;0.10;0.10;;;;;;;17.72;60.33;101576.81;5012881;28;20036;-89
2023/10/10 05:35:49;;;;;;;0.20;0.20;;;;;;;17.78;60.22;101589.50;5012604;28;20022;-90
2023/10/10 05:38:15;;;;;;;0.10;0.10;;;;;;;17.80;60.27;101592.88;5021766;28;20030;-88
2023/10/10 05:40:43;;;;;;;0.20;0.20;;;;;;;17.82;60.15;101591.00;4980814;28;20045;-89
2023/10/10 05:43:09;;;;;;;0.20;0.20;;;;;;;17.89;59.91;101607.13;4994782;28;20030;-87
2023/10/10 05:45:38;;;;;;;0.20;0.20;;;;;;;17.88;59.77;101595.81;5018138;28;20029;-87
2023/10/10 05:48:05;;;;;;;0.20;0.20;;;;;;;17.96;59.51;101609.25;5028138;28;20021;-92
2023/10/10 05:50:32;;;;;;;0.20;0.20;;;;;;;17.94;59.61;101598.06;5024879;28;20052;-85
2023/10/10 05:53:01;;;;;;;0.10;0.10;;;;;;;17.94;59.94;101616.38;5011895;28;20058;-92
2023/10/10 05:55:35;;;;;;;0.10;0.10;;;;;;;17.90;59.51;101588.72;5015272;28;20036;-90
2023/10/10 05:58:05;;;;;;;0.10;0.10;;;;;;;18.00;59.47;101618.63;5030147;28;20056;-88
2023/10/10 06:00:36;;;;;;;0.17;0.17;;;;;;;18.11;59.43;101609.22;5009876;28;20065;-87
2023/10/10 06:03:05;;;;;;;0.10;0.10;;;;;;;18.20;59.17;101622.56;5009926;28;20030;-88
2023/10/10 06:05:34;;;;;;;0.20;0.20;;;;;;;18.25;59.06;101623.09;5018213;28;20029;-91
2023/10/10 06:08:01;;;;;;;0.20;0.20;;;;;;;18.30;58.96;101628.88;5020858;28;20021;-92
2023/10/10 06:10:31;;;;;;;0.20;0.20;;;;;;;18.16;58.71;101600.13;4995482;28;20506;-86
2023/10/10 06:12:57;;;;;;;0.10;0.10;;;;;;;18.28;58.86;101627.28;5010557;28;20447;-88
2023/10/10 06:15:23;;;;;;;0.20;0.20;;;;;;;18.37;58.68;101626.69;4990760;28;20026;-85
2023/10/10 06:18:08;;;;;;;0.10;0.10;;;;;;;18.32;59.03;101631.41;4991459;28;20088;-91
2023/10/10 06:20:40;;;;;;;0.20;0.20;;;;;;;18.38;58.58;101630.97;4997159;28;20113;-90
2023/10/10 06:23:15;;;;;;;0.10;0.10;;;;;;;18.43;58.49;101625.44;5009413;28;20129;-87
2023/10/10 06:25:41;;;;;;;0.20;0.20;;;;;;;18.44;58.42;101630.59;5029088;28;20029;-91
2023/10/10 06:28:14;;;;;;;0.10;0.10;;;;;;;18.54;58.15;101642.13;5009309;28;20865;-84
2023/10/10 06:30:43;;;;;;;0.20;0.20;;;;;;;18.58;58.14;101640.13;5016287;28;20025;-93
2023/10/10 06:33:09;;;;;;;0.10;0.10;;;;;;;18.65;58.37;101638.00;5052993;28;20034;-87
2023/10/10 06:35:38;;;;;;;0.10;0.10;;;;;;;18.67;57.90;101641.34;5012878;28;20034;-88
2023/10/10 06:38:10;;;;;;;0.20;0.20;;;;;;;18.69;57.82;101644.72;4990650;28;20087;-91
2023/10/10 06:40:42;;;;;;;0.10;0.10;;;;;;;18.70;58.17;101646.41;4989893;28;20057;-85
2023/10/10 06:43:08;;;;;;;0.20;0.20;;;;;;;18.76;57.86;101651.22;5010455;28;20030;-86
2023/10/10 06:45:39;;;;;;;0.20;0.20;;;;;;;18.79;57.96;101651.03;5012868;28;20415;-87
2023/10/10 06:48:04;;;;;;;0.20;0.20;;;;;;;18.81;57.72;101657.00;4993729;28;20037;-93
2023/10/10 06:50:38;;;;;;;0.20;0.20;;;;;;;18.82;57.97;101654.28;5009771;28;20030;-88
2023/10/10 06:53:04;;;;;;;0.10;0.10;;;;;;;18.79;57.88;101657.13;5011788;28;20034;-90
2023/10/10 06:55:38;;;;;;;0.20;0.20;;;;;;;18.72;58.00;101645.34;5009741;28;20029;-91
2023/10/10 06:58:06;;;;;;;0.10;0.10;;;;;;;18.78;58.02;101654.56;5009509;28;20030;-87
2023/10/10 07:00:42;;;;;;;0.20;0.20;;;;;;;18.79;57.98;101661.50;5011445;28;20061;-93
2023/10/10 07:03:08;;;;;;;0.20;0.20;;;;;;;18.84;57.70;101656.78;4997245;28;20038;-87
2023/10/10 07:05:33;;;;;;;0.20;0.20;;;;;;;18.79;57.95;101640.53;5029841;28;20021;-91
2023/10/10 07:08:00;;;;;;;0.13;0.13;;;;;;;18.76;58.01;101657.28;5015736;28;20038;-93
2023/10/10 07:10:36;;;;;;;0.10;0.10;;;;;;;18.82;57.53;101635.09;4994350;28;20037;-90
2023/10/10 07:13:11;;;;;;;0.20;0.20;;;;;;;18.93;57.73;101661.41;5010075;28;20030;-91
2023/10/10 07:15:39;;;;;;;0.20;0.20;;;;;;;19.06;57.43;101664.88;5009250;28;20030;-89
2023/10/10 07:18:08;;;;;;;0.20;0.20;;;;;;;19.01;57.83;101669.59;4995704;28;20080;-90
2023/10/10 07:23:24;;;;;;;0.20;0.20;;;;;;;19.20;57.34;101680.53;5012753;28;20052;-92
2023/10/10 07:25:59;;;;;;;0.10;0.10;;;;;;;19.07;56.92;101665.72;5012315;28;20041;-89
2023/10/10 07:28:28;;;;;;;0.10;0.10;;;;;;;19.17;56.60;101672.00;5028568;28;20113;-86
2023/10/10 07:30:54;;;;;;;0.10;0.10;;;;;;;19.09;56.48;101656.81;5025574;28;20113;-86
2023/10/10 07:33:23;;;;;;;0.15;0.15;;;;;;;19.22;56.42;101669.91;5009677;28;20022;-91
2023/10/10 07:35:55;;;;;;;0.20;0.20;;;;;;;19.29;56.50;101678.22;5009480;28;20083;-87
2023/10/10 07:38:30;;;;;;;0.20;0.20;;;;;;;19.35;56.43;101667.28;5011045;28;20042;-90
2023/10/10 07:40:55;;;;;;;0.10;0.10;;;;;;;19.30;56.35;101651.88;4999921;28;20042;-88
2023/10/10 07:43:26;;;;;;;0.20;0.20;;;;;;;19.39;55.96;101658.28;5008523;28;20041;-92
2023/10/10 07:45:54;;;;;;;0.20;0.20;;;;;;;19.17;56.85;101654.50;4989632;28;20030;-90
2023/10/10 07:51:06;;;;;;;0.10;0.10;;;;;;;19.26;56.59;101650.38;5024241;28;20037;-90
2023/10/10 07:53:41;;;;;;;0.20;0.20;;;;;;;19.29;56.66;101646.75;4993812;28;20025;-86
2023/10/10 07:56:06;;;;;;;0.20;0.20;;;;;;;19.44;56.33;101658.78;4991899;28;20022;-89
2023/10/10 07:58:45;;;;;;;0.20;0.20;;;;;;;19.36;55.94;101645.34;4992248;28;20041;-88
2023/10/10 08:01:17;;;;;;;0.20;0.20;;;;;;;19.63;55.68;101677.56;4998576;28;20494;-91
2023/10/10 08:03:46;;;;;;;;;;;;;;;19.76;55.33;101675.78;5013276;28;20037;-88
2023/10/10 08:06:17;;;;;;;0.20;0.20;;;;;;;19.59;55.77;101670.03;5016895;28;19913;-91
2023/10/10 08:08:43;;;;;;;0.20;0.20;;;;;;;19.67;55.50;101679.06;4977036;28;20120;-90
2023/10/10 08:11:27;;;;;;;0.10;0.10;;;;;;;19.75;55.30;101668.81;4991123;28;20022;-87
2023/10/10 08:13:52;;;;;;;0.10;0.10;;;;;;;19.96;54.53;101684.00;4994780;28;20083;-86
2023/10/10 08:16:21;;;;;;;0.20;0.20;;;;;;;19.88;54.31;101671.44;4996461;28;20029;-92
2023/10/10 08:21:13;;;;;;;0.10;0.10;;;;;;;20.13;54.11;101694.13;4997589;28;20033;-87
2023/10/10 08:23:43;;;;;;;0.20;0.20;;;;;;;20.21;53.56;101691.78;5021175;28;20084;-85
2023/10/10 08:26:17;;;;;;;0.10;0.10;;;;;;;20.25;53.72;101690.59;4995602;28;20022;-91
2023/10/10 08:28:46;;;;;;;0.20;0.20;;;;;;;20.34;53.57;101707.50;5013542;28;20030;-89
2023/10/10 08:31:13;;;;;;;0.10;0.10;;;;;;;20.39;53.27;101686.16;4996009;28;20128;-87
2023/10/10 08:33:44;;;;;;;0.20;0.20;;;;;;;20.28;53.81;101698.28;4996147;28;20037;-87
2023/10/10 08:36:12;;;;;;;0.20;0.20;;;;;;;20.39;53.43;101684.34;4999264;28;20026;-90
2023/10/10 08:38:42;;;;;;;0.20;0.20;;;;;;;20.53;53.02;101676.31;4995759;28;20480;-88
2023/10/10 08:41:08;;;;;;;0.10;0.10;;;;;;;20.63;52.26;101700.97;4975284;28;20140;-88
2023/10/10 08:43:35;;;;;;;0.10;0.10;;;;;;;20.64;52.45;101704.44;4995184;28;20037;-93
2023/10/10 08:46:04;;;;;;;0.17;0.17;;;;;;;20.48;52.80;101710.00;4996300;28;20758;-91
2023/10/10 08:48:29;;;;;;;0.20;0.20;;;;;;;20.35;53.25;101711.78;4997109;28;20037;-88
2023/10/10 08:50:55;;;;;;;0.10;0.10;;;;;;;20.33;53.30;101717.16;4979156;28;20045;-89
2023/10/10 08:53:21;;;;;;;0.20;0.20;;;;;;;20.32;53.40;101707.63;5014776;28;20511;-89
2023/10/10 08:55:56;;;;;;;0.10;0.10;;;;;;;20.40;53.24;101716.72;4996369;28;20077;-91
2023/10/10 08:58:22;;;;;;;0.20;0.20;;;;;;;20.35;53.56;101719.69;4997268;28;20061;-92
2023/10/10 09:00:48;;;;;;;0.10;0.10;;;;;;;20.21;53.85;101718.06;4993173;28;20030;-89
2023/10/10 09:03:13;;;;;;;0.20;0.20;;;;;;;20.21;53.97;101718.06;4982667;28;20116;-89
2023/10/10 09:05:39;;;;;;;0.20;0.20;;;;;;;20.27;54.06;101717.63;4979160;28;20026;-88
2023/10/10 09:08:15;;;;;;;0.10;0.10;;;;;;;20.32;53.79;101712.88;4989395;28;20476;-88
2023/10/10 09:10:43;;;;;;;0.20;0.20;;;;;;;20.23;53.97;101713.53;4981845;28;20037;-93
2023/10/10 09:13:09;;;;;;;0.20;0.20;;;;;;;20.35;53.94;101714.44;4994019;28;20113;-91
2023/10/10 09:15:35;;;;;;;0.20;0.20;;;;;;;20.46;53.90;101717.16;4980806;28;20143;-91
2023/10/10 09:18:16;;;;;;;0.10;0.10;;;;;;;20.71;53.73;101716.19;4994705;28;20505;-91
2023/10/10 09:20:45;;;;;;;0.10;0.10;;;;;;;20.71;52.65;101716.19;4996227;28;20416;-89
2023/10/10 09:23:24;;;;;;;0.20;0.20;;;;;;;20.64;52.60;101699.16;4996790;28;20034;-87
2023/10/10 09:25:57;;;;;;;0.10;0.10;;;;;;;20.78;52.26;101708.69;4994264;28;20069;-87
2023/10/10 09:28:30;;;;;;;0.20;0.20;;;;;;;20.80;52.15;101702.34;5014996;28;20415;-86
2023/10/10 09:30:59;;;;;;;0.20;0.20;;;;;;;21.00;51.28;101705.25;4993157;28;20030;-90
2023/10/10 09:33:33;;;;;;;0.20;0.20;;;;;;;21.02;51.36;101692.81;4991471;28;20030;-89
2023/10/10 09:36:08;;;;;;;0.10;0.10;;;;;;;21.21;50.90;101687.84;4995416;28;20038;-88
2023/10/10 09:38:43;;;;;;;0.10;0.10;;;;;;;21.36;50.64;101697.22;4991141;28;20035;-89
2023/10/10 09:41:27;;;;;;;0.10;0.10;;;;;;;21.36;50.38;101694.59;4971812;28;20104;-86
2023/10/10 09:47:16;;;;;;;0.20;0.20;;;;;;;21.43;49.78;101695.81;4996949;28;20026;-91
2023/10/10 09:50:00;;;;;;;0.20;0.20;;;;;;;21.30;49.95;101660.84;5010680;28;20463;-91
2023/10/10 09:57:58;;;;;;;0.20;0.20;;;;;;;21.65;50.01;101671.25;5009205;28;20476;-89
2023/10/10 10:00:31;;;;;;;0.10;0.10;;;;;;;21.67;49.57;101685.13;5026614;28;20029;-93
2023/10/10 10:02:59;;;;;;;0.10;0.10;;;;;;;21.33;50.02;101665.84;5025629;28;20030;-89
2023/10/10 10:05:28;;;;;;;0.10;0.10;;;;;;;21.57;49.61;101672.81;5010506;28;20483;-90
2023/10/10 10:08:09;;;;;;;0.20;0.20;;;;;;;21.58;49.27;101662.16;5018723;28;20038;-86
2023/10/10 10:10:56;;;;;;;0.20;0.20;;;;;;;21.59;49.61;101661.19;5009106;28;20057;-92
2023/10/10 10:14:14;;;;;;;0.10;0.10;;;;;;;21.62;49.20;101665.38;5011067;28;20029;-88
2023/10/10 10:16:46;;;;;;;0.10;0.10;;;;;;;21.57;49.19;101651.75;4994688;28;20407;-85
2023/10/10 10:19:15;;;;;;;0.10;0.10;;;;;;;21.66;49.65;101656.28;5009195;28;20081;-90
2023/10/10 10:22:07;;;;;;;0.20;0.20;;;;;;;21.75;49.36;101656.41;5005412;28;20038;-89
2023/10/10 10:24:33;;;;;;;;;;;;;;;21.91;49.58;101670.97;5013300;28;20414;-93
2023/10/10 10:32:56;;;;;;;0.10;0.10;;;;;;;21.89;49.12;101655.28;5023567;28;20034;-86
2023/10/10 10:35:24;;;;;;;0.20;0.20;;;;;;;21.81;49.16;101649.78;4995412;28;20045;-86
2023/10/10 10:37:58;;;;;;;0.20;0.20;;;;;;;21.85;49.01;101651.22;5001360;28;20030;-88
2023/10/10 10:43:05;;;;;;;0.20;0.20;;;;;;;22.15;48.02;101652.38;5009700;28;20034;-85
2023/10/10 10:45:35;;;;;;;0.10;0.10;;;;;;;22.11;48.50;101650.94;5019410;28;20512;-85
2023/10/10 10:48:29;;;;;;;0.20;0.20;;;;;;;22.28;47.94;101653.88;4999405;28;20042;-86
2023/10/10 10:51:02;;;;;;;0.20;0.20;;;;;;;22.32;47.93;101649.19;5005015;28;20046;-92
2023/10/10 10:53:40;;;;;;;0.20;0.20;;;;;;;22.31;47.87;101639.59;4987882;28;20066;-87
2023/10/10 11:01:27;;;;;;;0.10;0.10;;;;;;;22.33;47.70;101650.88;4993157;28;20423;-85
2023/10/10 11:03:53;;;;;;;0.20;0.20;;;;;;;22.29;47.86;101655.53;5011198;28;20030;-90
2023/10/10 11:06:20;;;;;;;0.20;0.20;;;;;;;22.33;47.71;101645.59;4992725;28;20312;-87
2023/10/10 11:11:36;;;;;;;0.20;0.20;;;;;;;22.19;48.21;101638.81;5007892;28;20042;-88
2023/10/10 11:17:17;;;;;;;0.20;0.20;;;;;;;22.06;48.72;101643.38;4996455;28;20030;-93
2023/10/10 11:22:05;;;;;;;0.10;0.10;;;;;;;22.21;48.76;101628.97;5015554;28;20049;-93
2023/10/10 11:24:32;;;;;;;0.20;0.20;;;;;;;22.26;48.71;101624.16;4994053;28;20030;-91
2023/10/10 11:30:24;;;;;;;0.20;0.20;;;;;;;22.41;48.15;101632.59;5010420;28;20487;-88
2023/10/10 11:32:24;;;;;;;0.10;0.10;;;;;;;22.23;48.58;101645.53;4978849;28;20200;-93
2023/10/10 11:34:50;;;;;;;0.20;0.20;;;;;;;22.22;48.41;101624.53;4995031;28;20090;-90
2023/10/10 11:37:20;;;;;;;0.20;0.20;;;;;;;22.21;48.73;101641.31;4995027;28;20041;-92
2023/10/10 11:39:47;;;;;;;0.10;0.10;;;;;;;22.05;48.95;101650.47;5002002;28;20044;-88
2023/10/10 11:42:35;;;;;;;0.20;0.20;;;;;;;22.21;48.55;101636.03;4972839;28;20049;-90
2023/10/10 11:45:07;;;;;;;0.20;0.20;;;;;;;22.37;48.33;101639.09;5007372;28;20636;-91
2023/10/10 11:47:42;;;;;;;0.17;0.17;;;;;;;22.30;48.04;101630.84;4975005;28;20157;-87
2023/10/10 11:50:08;;;;;;;0.10;0.10;;;;;;;22.34;48.76;101626.19;5006324;28;20045;-86
2023/10/10 11:52:34;;;;;;;0.10;0.10;;;;;;;22.43;48.14;101641.25;5005869;28;20045;-86
2023/10/10 11:55:00;;;;;;;0.20;0.20;;;;;;;22.48;47.92;101635.56;5015266;28;20048;-92
2023/10/10 11:57:29;;;;;;;0.10;0.10;;;;;;;22.45;48.00;101628.75;5010443;28;20514;-87
2023/10/10 12:00:07;;;;;;;0.10;0.10;;;;;;;22.57;47.68;101638.28;5028555;28;20057;-85
2023/10/10 12:02:39;;;;;;;0.10;0.10;;;;;;;22.38;47.56;101595.94;5008808;28;20053;-86
2023/10/10 12:05:53;;;;;;;0.10;0.10;;;;;;;22.52;47.71;101619.38;5007218;28;20030;-88
2023/10/10 12:08:05;;;;;;;0.10;0.10;;;;;;;22.61;47.28;101618.63;5013794;28;20049;-85
2023/10/10 12:10:52;;;;;;;0.10;0.10;;;;;;;22.58;46.75;101613.56;5017612;28;20081;-87
2023/10/10 12:15:57;;;;;;;0.15;0.15;;;;;;;22.34;47.18;101607.72;5022201;28;20057;-86
2023/10/10 12:18:26;;;;;;;0.10;0.10;;;;;;;22.42;46.95;101628.16;4989289;28;20038;-88
2023/10/10 12:20:55;;;;;;;0.20;0.20;;;;;;;22.40;47.47;101633.56;5028198;28;20041;-91
2023/10/10 12:23:20;;;;;;;0.20;0.20;;;;;;;22.42;47.43;101628.16;5018388;28;20029;-88
2023/10/10 12:25:46;;;;;;;0.20;0.20;;;;;;;22.43;47.40;101635.97;5035799;28;20513;-92
2023/10/10 12:28:17;;;;;;;0.20;0.20;;;;;;;22.36;47.31;101632.16;5017989;28;20471;-91
2023/10/10 12:30:46;;;;;;;0.20;0.20;;;;;;;22.19;47.68;101622.16;5017396;28;20040;-90
2023/10/10 12:33:12;;;;;;;0.20;0.20;;;;;;;22.07;47.34;101621.38;4993950;28;20026;-87
2023/10/10 12:35:42;;;;;;;0.10;0.10;;;;;;;22.10;47.76;101604.47;4994136;28;21454;-85
2023/10/10 12:38:08;;;;;;;0.20;0.20;;;;;;;22.11;48.01;101627.22;5006251;28;20037;-86
2023/10/10 12:40:34;;;;;;;0.10;0.10;;;;;;;22.04;48.31;101627.69;4987648;28;20050;-85
2023/10/10 12:43:03;;;;;;;0.20;0.20;;;;;;;21.98;47.87;101615.03;5027999;28;20029;-84
2023/10/10 12:45:29;;;;;;;0.20;0.20;;;;;;;22.03;47.68;101622.56;5012339;28;20034;-84
2023/10/10 12:47:57;;;;;;;0.20;0.20;;;;;;;22.14;47.72;101617.28;5047158;28;20068;-86
2023/10/10 12:50:26;;;;;;;0.20;0.20;;;;;;;22.29;47.54;101634.44;5031945;28;20069;-91
2023/10/10 12:53:07;;;;;;;0.15;0.15;;;;;;;22.27;47.22;101610.03;5013717;28;20074;-91
2023/10/10 12:55:48;;;;;;;0.20;0.20;;;;;;;22.07;47.71;101615.25;5009418;28;20101;-89
2023/10/10 12:58:20;;;;;;;0.20;0.20;;;;;;;22.11;47.29;101614.88;5014763;28;20475;-92
2023/10/10 13:00:52;;;;;;;0.20;0.20;;;;;;;22.13;47.74;101630.59;5012717;28;20100;-89
2023/10/10 13:03:23;;;;;;;0.20;0.20;;;;;;;22.02;48.13;101627.00;5011440;28;20281;-96
2023/10/10 13:05:52;;;;;;;0.20;0.20;;;;;;;22.07;46.96;101638.97;5010985;28;20030;-88
2023/10/10 13:08:20;;;;;;;0.20;0.20;;;;;;;22.08;46.72;101625.69;5015682;28;20477;-91
2023/10/10 13:10:55;;;;;;;0.20;0.20;;;;;;;22.10;47.37;101622.91;5003023;28;20026;-91
2023/10/10 13:13:31;;;;;;;0.20;0.20;;;;;;;22.13;47.33;101615.63;5007337;28;20439;-90
2023/10/10 13:18:50;;;;;;;0.20;0.20;;;;;;;21.97;47.21;101617.78;5004535;28;20050;-86
2023/10/10 13:21:19;;;;;;;0.20;0.20;;;;;;;21.97;47.20;101633.59;5024259;28;20053;-85
2023/10/10 13:23:45;;;;;;;0.17;0.17;;;;;;;22.08;46.72;101640.66;5016263;28;20105;-89
2023/10/10 13:26:11;;;;;;;0.20;0.20;;;;;;;21.94;47.23;101639.13;5009698;28;20081;-91
2023/10/10 13:28:44;;;;;;;0.10;0.10;;;;;;;21.71;47.75;101643.56;5006798;28;20037;-90
2023/10/10 13:31:10;;;;;;;0.13;0.13;;;;;;;21.73;48.07;101653.06;5008640;28;20034;-86
2023/10/10 13:33:36;;;;;;;0.10;0.10;;;;;;;21.72;48.25;101656.63;5012283;28;20028;-92
2023/10/10 13:36:01;;;;;;;0.10;0.10;;;;;;;21.37;48.89;101646.25;5027924;28;20033;-88
2023/10/10 13:38:27;;;;;;;0.10;0.10;;;;;;;21.17;49.27;101644.31;5011021;28;20054;-87
2023/10/10 13:40:52;;;;;;;0.10;0.10;;;;;;;21.24;48.98;101653.41;4992623;28;20077;-88
2023/10/10 13:43:18;;;;;;;0.10;0.10;;;;;;;21.05;49.46;101651.34;5024065;28;20030;-87
2023/10/10 13:45:50;;;;;;;0.20;0.20;;;;;;;21.21;48.93;101656.25;5007175;28;20037;-88
2023/10/10 13:48:21;;;;;;;0.10;0.10;;;;;;;21.04;49.50;101644.44;5026557;28;20040;-87
2023/10/10 13:50:50;;;;;;;0.10;0.10;;;;;;;20.99;49.86;101657.09;5006483;28;20522;-93
2023/10/10 13:53:16;;;;;;;0.10;0.10;;;;;;;21.08;49.61;101648.47;4993601;28;20112;-92
2023/10/10 13:55:43;;;;;;;0.10;0.10;;;;;;;20.90;49.80;101642.84;5009961;28;20112;-92
2023/10/10 13:58:12;;;;;;;0.10;0.10;;;;;;;21.04;49.44;101649.69;4993400;28;20543;-86
2023/10/10 14:00:43;;;;;;;0.20;0.20;;;;;;;21.14;49.36;101647.19;4986326;28;20149;-85
2023/10/10 14:03:08;;;;;;;0.20;0.20;;;;;;;21.24;49.01;101645.50;4993622;28;20041;-86
2023/10/10 14:05:37;;;;;;;0.10;0.10;;;;;;;21.27;49.05;101653.19;5006903;28;20480;-87
2023/10/10 14:08:06;;;;;;;0.10;0.10;;;;;;;21.35;48.86;101650.81;4986351;28;20466;-85
2023/10/10 14:10:36;;;;;;;0.10;0.10;;;;;;;21.18;49.09;101646.81;4980444;28;20026;-85
2023/10/10 14:13:18;;;;;;;0.10;0.10;;;;;;;21.33;49.06;101660.59;5002856;28;20029;-93
2023/10/10 14:15:54;;;;;;;;;;;;;;;21.41;48.89;101657.38;5005640;28;20026;-85
2023/10/10 14:18:30;;;;;;;0.10;0.10;;;;;;;21.11;49.12;101665.81;5006611;28;19952;-91
2023/10/10 14:20:55;;;;;;;0.10;0.10;;;;;;;21.24;48.70;101661.31;4994639;28;20030;-89
2023/10/10 14:23:22;;;;;;;0.10;0.10;;;;;;;20.99;48.96;101629.94;4994441;28;20056;-86
2023/10/10 14:25:49;;;;;;;0.10;0.10;;;;;;;21.17;48.56;101654.84;4987944;28;20113;-84
2023/10/10 14:28:18;;;;;;;0.20;0.20;;;;;;;21.05;48.63;101647.91;4986492;28;20132;-84
2023/10/10 14:30:44;;;;;;;0.10;0.10;;;;;;;21.04;48.92;101652.31;4971878;28;20058;-84
2023/10/10 14:33:10;;;;;;;0.20;0.20;;;;;;;21.05;49.19;101650.53;4989458;28;20109;-83
2023/10/10 14:35:35;;;;;;;0.10;0.10;;;;;;;20.96;48.89;101646.81;4972897;28;20086;-84
2023/10/10 14:38:01;;;;;;;0.10;0.10;;;;;;;20.89;48.66;101635.06;4972508;28;20393;-85
2023/10/10 14:40:27;;;;;;;0.20;0.20;;;;;;;20.86;48.71;101628.25;4972699;28;20069;-84
2023/10/10 14:42:52;;;;;;;0.10;0.10;;;;;;;20.95;48.90;101660.06;4973041;28;20037;-90
2023/10/10 14:45:28;;;;;;;0.10;0.10;;;;;;;20.91;49.11;101657.66;4973852;28;20023;-90
2023/10/10 14:47:56;;;;;;;0.20;0.20;;;;;;;20.92;48.85;101666.38;4974508;28;20121;-91
2023/10/10 14:50:23;;;;;;;0.10;0.10;;;;;;;20.84;49.13;101664.38;4974152;28;20037;-89